Time;durP1;ratioP1;P1;durP2;ratioP2;P2;SDS_P1;SDS_P2;PMS_P1;PMS_P2;Temp;Humidity;BMP_temperature;BMP_pressure;BME280_temperature;BME280_humidity;BME280_pressure;Samples;Min_cycle;Max_cycle;Signal;HPM_P1;HPM_P2
2023/09/09 00:02:10;;;;;;;8.30;7.50;;;19.20;1.00;;;;;;4982640;28;20824;-89
2023/09/09 00:04:36;;;;;;;8.03;7.23;;;19.50;1.00;;;;;;4972797;28;20452;-89
2023/09/09 00:07:03;;;;;;;7.87;7.17;;;19.90;1.00;;;;;;4976409;28;20481;-90
2023/09/09 00:09:29;;;;;;;8.60;7.80;;;21.80;1.00;;;;;;4984252;28;20417;-89
2023/09/09 00:11:55;;;;;;;8.25;7.60;;;19.30;1.00;;;;;;4985940;28;20393;-89
2023/09/09 00:14:21;;;;;;;8.82;8.00;;;19.70;1.00;;;;;;4987300;28;21089;-90
2023/09/09 00:16:46;;;;;;;8.32;7.53;;;21.40;1.00;;;;;;4983563;28;20393;-89
2023/09/09 00:19:12;;;;;;;7.63;7.03;;;19.00;1.00;;;;;;4977545;28;20390;-88
2023/09/09 00:21:38;;;;;;;8.23;7.50;;;19.00;1.00;;;;;;4984921;28;20396;-89
2023/09/09 00:24:03;;;;;;;8.85;8.10;;;17.50;1.00;;;;;;4989783;28;20387;-88
2023/09/09 00:26:31;;;;;;;8.40;7.60;;;19.20;1.00;;;;;;4990093;28;20392;-88
2023/09/09 00:28:57;;;;;;;7.50;6.90;;;19.10;1.00;;;;;;4986002;28;20963;-88
2023/09/09 00:31:22;;;;;;;8.48;7.68;;;19.00;1.00;;;;;;4976665;28;20394;-88
2023/09/09 00:33:48;;;;;;;8.52;7.80;;;19.20;1.00;;;;;;4990126;28;20425;-89
2023/09/09 00:36:14;;;;;;;9.53;8.20;;;19.20;1.00;;;;;;4984414;28;20508;-89
2023/09/09 00:38:40;;;;;;;8.00;7.20;;;19.20;1.00;;;;;;4986191;28;20816;-89
2023/09/09 00:41:13;;;;;;;8.38;7.68;;;21.40;1.00;;;;;;4984964;28;20392;-89
2023/09/09 00:43:39;;;;;;;9.00;8.10;;;19.20;1.00;;;;;;5000669;28;20375;-89
2023/09/09 00:46:08;;;;;;;8.82;8.02;;;20.00;1.00;;;;;;4982520;28;20406;-89
2023/09/09 00:48:34;;;;;;;8.60;7.80;;;19.10;1.00;;;;;;4992851;28;20467;-89
2023/09/09 00:51:00;;;;;;;8.60;7.70;;;19.00;1.00;;;;;;4980842;28;20402;-88
2023/09/09 00:53:26;;;;;;;8.40;7.70;;;19.20;1.00;;;;;;4987913;28;20404;-89
2023/09/09 00:55:53;;;;;;;9.23;8.23;;;19.00;1.00;;;;;;4996563;28;20406;-88
2023/09/09 00:58:19;;;;;;;8.23;7.60;;;17.90;1.00;;;;;;4983701;28;20389;-88
2023/09/09 01:00:45;;;;;;;8.10;7.30;;;19.20;1.00;;;;;;4991299;28;20389;-88
2023/09/09 01:03:10;;;;;;;9.10;8.20;;;18.90;1.00;;;;;;4979003;28;20874;-88
2023/09/09 01:05:38;;;;;;;9.50;8.60;;;18.70;1.00;;;;;;4982596;28;20442;-89
2023/09/09 01:08:04;;;;;;;8.80;7.90;;;18.90;1.00;;;;;;4989809;28;20908;-89
2023/09/09 01:10:30;;;;;;;7.95;7.30;;;19.00;1.00;;;;;;4976254;28;20890;-90
2023/09/09 01:12:56;;;;;;;8.70;7.90;;;19.40;1.00;;;;;;4981466;28;20475;-90
2023/09/09 01:15:22;;;;;;;9.38;8.48;;;18.20;1.00;;;;;;4985097;28;20429;-90
2023/09/09 01:17:49;;;;;;;8.57;7.88;;;18.80;1.00;;;;;;4987121;28;20424;-90
2023/09/09 01:20:17;;;;;;;8.57;7.88;;;20.30;1.00;;;;;;4982761;28;20483;-89
2023/09/09 01:22:46;;;;;;;8.60;7.70;;;17.90;1.00;;;;;;4972261;28;20375;-89
2023/09/09 01:25:12;;;;;;;8.90;8.10;;;18.80;1.00;;;;;;4983388;28;20519;-88
2023/09/09 01:27:39;;;;;;;9.50;8.60;;;18.40;1.00;;;;;;4998045;28;20409;-89
2023/09/09 01:30:05;;;;;;;10.18;8.57;;;18.50;1.00;;;;;;4982860;28;20642;-89
2023/09/09 01:32:30;;;;;;;9.10;8.30;;;18.80;1.00;;;;;;4984429;28;20402;-89
2023/09/09 01:34:56;;;;;;;9.60;8.80;;;18.20;1.00;;;;;;4992790;28;20432;-90
2023/09/09 01:37:22;;;;;;;10.35;7.97;;;18.70;1.00;;;;;;4997086;28;20410;-90
2023/09/09 01:39:49;;;;;;;9.20;8.40;;;18.70;1.00;;;;;;4982922;28;20757;-89
2023/09/09 01:42:15;;;;;;;9.55;8.70;;;18.80;1.00;;;;;;4983110;28;20397;-89
2023/09/09 01:44:42;;;;;;;9.93;8.93;;;18.70;1.00;;;;;;5000867;28;20482;-88
2023/09/09 01:47:09;;;;;;;11.35;9.05;;;18.70;1.00;;;;;;4986552;28;20390;-89
2023/09/09 01:49:35;;;;;;;9.75;8.95;;;18.60;1.00;;;;;;4981190;28;20405;-89
2023/09/09 01:52:00;;;;;;;9.63;8.82;;;18.80;1.00;;;;;;4986595;28;20402;-88
2023/09/09 01:54:26;;;;;;;10.00;9.00;;;18.30;1.00;;;;;;4992785;28;20453;-89
2023/09/09 01:56:51;;;;;;;9.30;8.50;;;18.10;1.00;;;;;;4993523;28;20408;-89
2023/09/09 01:59:17;;;;;;;8.93;8.23;;;18.30;1.00;;;;;;5001838;28;20380;-89
2023/09/09 02:01:42;;;;;;;9.33;8.43;;;18.70;1.00;;;;;;5006408;28;20413;-90
2023/09/09 02:04:08;;;;;;;10.32;8.50;;;19.10;1.00;;;;;;5006069;28;20424;-89
2023/09/09 02:06:34;;;;;;;9.50;8.70;;;18.70;1.00;;;;;;5009902;28;20446;-89
2023/09/09 02:09:01;;;;;;;9.93;9.10;;;18.60;1.00;;;;;;4984201;28;20496;-88
2023/09/09 02:11:26;;;;;;;10.30;9.00;;;18.50;1.00;;;;;;4988749;28;20401;-88
2023/09/09 02:13:52;;;;;;;9.85;8.88;;;18.50;1.00;;;;;;4976203;28;20913;-89
2023/09/09 02:16:18;;;;;;;9.40;8.60;;;19.00;1.00;;;;;;5005562;28;20467;-89
2023/09/09 02:18:44;;;;;;;9.83;8.93;;;18.60;1.00;;;;;;4984737;28;20437;-88
2023/09/09 02:21:09;;;;;;;9.93;9.03;;;18.60;1.00;;;;;;4989921;28;21328;-89
2023/09/09 02:23:38;;;;;;;9.97;9.07;;;18.10;1.00;;;;;;5008075;28;20904;-89
2023/09/09 02:26:04;;;;;;;9.50;8.50;;;18.60;1.00;;;;;;4988513;28;20438;-89
2023/09/09 02:28:30;;;;;;;10.00;8.83;;;18.70;1.00;;;;;;5011891;28;20388;-89
2023/09/09 02:30:56;;;;;;;9.73;8.93;;;18.40;1.00;;;;;;4999885;28;20398;-90
2023/09/09 02:33:22;;;;;;;9.50;8.60;;;18.50;1.00;;;;;;5031080;28;20393;-89
2023/09/09 02:35:47;;;;;;;10.53;9.53;;;18.60;1.00;;;;;;4986935;28;20436;-88
2023/09/09 02:38:13;;;;;;;9.90;9.10;;;18.40;1.00;;;;;;4994672;28;20416;-88
2023/09/09 02:40:38;;;;;;;9.90;9.00;;;20.10;1.00;;;;;;4990094;28;20462;-89
2023/09/09 02:43:04;;;;;;;9.40;8.60;;;18.30;1.00;;;;;;5019176;28;20386;-90
2023/09/09 02:45:29;;;;;;;9.15;8.35;;;17.00;1.00;;;;;;5015265;28;20408;-90
2023/09/09 02:47:55;;;;;;;9.60;8.80;;;17.90;1.00;;;;;;4999917;28;20932;-88
2023/09/09 02:50:21;;;;;;;10.20;9.20;;;18.30;1.00;;;;;;4977524;28;20438;-88
2023/09/09 02:52:50;;;;;;;9.80;8.80;;;17.20;1.00;;;;;;4986448;28;20483;-88
2023/09/09 02:55:15;;;;;;;9.90;9.10;;;18.00;1.00;;;;;;4982984;28;20406;-88
2023/09/09 02:57:41;;;;;;;10.20;9.30;;;18.40;1.00;;;;;;4981337;28;20486;-89
2023/09/09 03:00:10;;;;;;;9.80;9.00;;;21.70;1.00;;;;;;4980902;28;20533;-89
2023/09/09 03:02:35;;;;;;;10.40;9.48;;;18.40;1.00;;;;;;4987928;28;20392;-89
2023/09/09 03:05:03;;;;;;;10.07;9.10;;;18.00;1.00;;;;;;4990466;28;20397;-89
2023/09/09 03:07:28;;;;;;;9.52;8.63;;;18.40;1.00;;;;;;4985958;28;20395;-89
2023/09/09 03:09:54;;;;;;;9.83;8.93;;;18.50;1.00;;;;;;4982036;28;20393;-88
2023/09/09 03:12:20;;;;;;;10.48;9.48;;;18.40;1.00;;;;;;4984686;28;20401;-89
2023/09/09 03:14:49;;;;;;;10.10;9.13;;;18.20;1.00;;;;;;4983349;28;20411;-89
2023/09/09 03:17:15;;;;;;;10.40;9.43;;;17.80;1.00;;;;;;4987880;28;20385;-88
2023/09/09 03:19:41;;;;;;;10.15;9.25;;;18.30;1.00;;;;;;4995454;28;20385;-88
2023/09/09 03:22:06;;;;;;;10.40;9.50;;;18.20;1.00;;;;;;4988957;28;20913;-89
2023/09/09 03:24:32;;;;;;;9.80;8.90;;;18.20;1.00;;;;;;4986589;28;20468;-88
2023/09/09 03:26:58;;;;;;;9.70;8.90;;;18.10;1.00;;;;;;4993434;28;20402;-88
2023/09/09 03:29:23;;;;;;;10.40;9.50;;;18.10;1.00;;;;;;5015802;28;20382;-89
2023/09/09 03:31:49;;;;;;;10.40;9.50;;;18.60;1.00;;;;;;4989607;28;20773;-87
2023/09/09 03:34:14;;;;;;;9.47;8.67;;;19.10;1.00;;;;;;4984577;28;20396;-87
2023/09/09 03:36:42;;;;;;;10.48;9.57;;;18.70;1.00;;;;;;4990985;28;20433;-88
2023/09/09 03:39:07;;;;;;;10.63;9.63;;;18.00;1.00;;;;;;4981697;28;20448;-88
2023/09/09 03:41:33;;;;;;;9.80;8.90;;;17.60;1.00;;;;;;4985441;28;20402;-88
2023/09/09 03:43:59;;;;;;;10.18;9.18;;;17.80;1.00;;;;;;4990414;28;20425;-88
2023/09/09 03:46:24;;;;;;;10.55;9.63;;;20.00;1.00;;;;;;4990078;28;20398;-89
2023/09/09 03:48:50;;;;;;;10.77;9.73;;;19.00;1.00;;;;;;4987468;28;20398;-88
2023/09/09 03:51:15;;;;;;;10.82;9.82;;;17.80;1.00;;;;;;4992646;28;20776;-89
2023/09/09 03:53:41;;;;;;;10.10;9.20;;;18.10;1.00;;;;;;4989157;28;20411;-87
2023/09/09 03:56:07;;;;;;;10.47;9.57;;;18.50;1.00;;;;;;4997332;28;20411;-88
2023/09/09 03:58:32;;;;;;;10.80;9.80;;;17.50;1.00;;;;;;4991473;28;20414;-88
2023/09/09 04:01:04;;;;;;;10.67;9.80;;;19.20;1.00;;;;;;4992203;28;20400;-88
2023/09/09 04:03:33;;;;;;;10.85;9.75;;;16.80;1.00;;;;;;4977407;28;20481;-88
2023/09/09 04:05:58;;;;;;;10.35;9.52;;;17.70;1.00;;;;;;4984414;28;20402;-88
2023/09/09 04:08:24;;;;;;;11.20;10.30;;;18.80;1.00;;;;;;4993288;28;20401;-88
2023/09/09 04:10:49;;;;;;;10.97;10.07;;;17.60;1.00;;;;;;4976993;28;20914;-88
2023/09/09 04:13:15;;;;;;;11.10;10.00;;;17.60;1.00;;;;;;4990648;28;20428;-88
2023/09/09 04:15:40;;;;;;;11.13;10.03;;;17.80;1.00;;;;;;4986368;28;20419;-87
2023/09/09 04:18:06;;;;;;;10.50;9.60;;;17.80;1.00;;;;;;4986831;28;20411;-88
2023/09/09 04:20:31;;;;;;;10.45;9.60;;;16.50;1.00;;;;;;4989342;28;20447;-88
2023/09/09 04:22:57;;;;;;;11.90;10.70;;;19.40;1.00;;;;;;4981489;28;20766;-87
2023/09/09 04:25:23;;;;;;;11.10;10.00;;;20.20;1.00;;;;;;4988644;28;20970;-88
2023/09/09 04:27:48;;;;;;;11.10;10.10;;;17.90;1.00;;;;;;4988096;28;20426;-89
2023/09/09 04:30:14;;;;;;;10.90;9.90;;;20.10;1.00;;;;;;4988556;28;20405;-88
2023/09/09 04:32:39;;;;;;;10.70;9.60;;;18.10;1.00;;;;;;4993422;28;20439;-88
2023/09/09 04:35:05;;;;;;;10.50;9.60;;;16.30;1.00;;;;;;4992562;28;20405;-87
2023/09/09 04:37:32;;;;;;;11.13;9.95;;;18.00;1.00;;;;;;4981738;28;20390;-87
2023/09/09 04:39:57;;;;;;;10.38;9.48;;;18.00;1.00;;;;;;4990231;28;20393;-88
2023/09/09 04:42:23;;;;;;;10.75;9.70;;;20.30;1.00;;;;;;5001998;28;20388;-87
2023/09/09 04:44:49;;;;;;;11.50;10.40;;;18.40;1.00;;;;;;4986200;28;20429;-88
2023/09/09 04:47:14;;;;;;;11.57;10.48;;;18.30;1.00;;;;;;4997365;28;20394;-88
2023/09/09 04:49:40;;;;;;;11.30;10.30;;;18.00;1.00;;;;;;5002116;28;20408;-87
2023/09/09 04:52:05;;;;;;;10.30;9.40;;;18.00;1.00;;;;;;4989671;28;20402;-87
2023/09/09 04:54:31;;;;;;;11.10;10.02;;;16.60;1.00;;;;;;4979361;28;20503;-88
2023/09/09 04:56:56;;;;;;;11.20;10.20;;;18.70;1.00;;;;;;5000869;28;20432;-88
2023/09/09 04:59:22;;;;;;;10.40;9.50;;;17.50;1.00;;;;;;4985197;28;20484;-87
2023/09/09 05:01:47;;;;;;;10.40;9.60;;;20.00;1.00;;;;;;4984660;28;20397;-87
2023/09/09 05:04:13;;;;;;;10.27;9.38;;;17.80;1.00;;;;;;4997766;28;20821;-87
2023/09/09 05:06:38;;;;;;;10.90;9.80;;;16.70;1.00;;;;;;4988947;28;20912;-88
2023/09/09 05:09:04;;;;;;;10.27;9.33;;;17.30;1.00;;;;;;4982918;28;20752;-87
2023/09/09 05:11:30;;;;;;;10.73;9.73;;;16.40;1.00;;;;;;4983358;28;20428;-88
2023/09/09 05:13:55;;;;;;;11.57;10.45;;;17.50;1.00;;;;;;4979334;28;20387;-87
2023/09/09 05:16:21;;;;;;;10.63;9.73;;;18.10;1.00;;;;;;4977987;28;20402;-87
2023/09/09 05:18:46;;;;;;;11.50;10.50;;;17.90;1.00;;;;;;4987881;28;20405;-87
2023/09/09 05:21:12;;;;;;;11.37;10.40;;;18.00;1.00;;;;;;4987604;28;20392;-88
2023/09/09 05:23:38;;;;;;;11.50;10.40;;;17.90;1.00;;;;;;4983923;28;20472;-88
2023/09/09 05:26:04;;;;;;;10.90;9.80;;;18.20;1.00;;;;;;5002088;28;20398;-88
2023/09/09 05:28:29;;;;;;;11.20;10.20;;;17.90;1.00;;;;;;4988473;28;20401;-88
2023/09/09 05:30:55;;;;;;;10.10;9.20;;;17.90;1.00;;;;;;5001734;28;20386;-88
2023/09/09 05:33:20;;;;;;;11.20;10.10;;;17.40;1.00;;;;;;4984495;28;20399;-89
2023/09/09 05:35:50;;;;;;;11.03;10.00;;;19.10;1.00;;;;;;4983901;28;20423;-88
2023/09/09 05:38:15;;;;;;;11.85;10.65;;;17.70;1.00;;;;;;4982572;28;20401;-87
2023/09/09 05:40:41;;;;;;;10.65;9.55;;;17.80;1.00;;;;;;4980744;28;20390;-89
2023/09/09 05:43:06;;;;;;;10.67;9.67;;;16.30;1.00;;;;;;4979356;28;20389;-90
2023/09/09 05:45:32;;;;;;;11.32;10.30;;;18.20;1.00;;;;;;4980830;28;20403;-89
2023/09/09 05:47:57;;;;;;;10.83;9.93;;;19.70;1.00;;;;;;4989321;28;20444;-89
2023/09/09 05:50:23;;;;;;;11.25;10.15;;;18.40;1.00;;;;;;4987725;28;20403;-88
2023/09/09 05:52:48;;;;;;;10.67;9.60;;;20.00;1.00;;;;;;4975037;28;20391;-87
2023/09/09 05:55:14;;;;;;;11.10;10.10;;;18.60;1.00;;;;;;4974836;28;20994;-88
2023/09/09 05:57:39;;;;;;;10.75;9.85;;;18.10;1.00;;;;;;4987280;28;20400;-88
2023/09/09 06:00:06;;;;;;;10.50;9.60;;;18.00;1.00;;;;;;4985645;28;20761;-88
2023/09/09 06:02:31;;;;;;;11.07;10.13;;;18.30;1.00;;;;;;4983988;28;20748;-88
2023/09/09 06:04:57;;;;;;;10.90;9.90;;;17.70;1.00;;;;;;4988779;28;20389;-88
2023/09/09 06:07:23;;;;;;;12.48;10.65;;;19.30;1.00;;;;;;4986240;28;20469;-88
2023/09/09 06:09:48;;;;;;;10.80;9.90;;;18.60;1.00;;;;;;5008016;28;20980;-88
2023/09/09 06:12:14;;;;;;;11.30;10.20;;;20.60;1.00;;;;;;4990402;28;20387;-89
2023/09/09 06:14:39;;;;;;;10.73;9.73;;;18.40;1.00;;;;;;4983236;28;20441;-89
2023/09/09 06:17:05;;;;;;;11.10;9.90;;;17.50;1.00;;;;;;5001502;28;20437;-89
2023/09/09 06:19:31;;;;;;;11.10;10.20;;;18.60;1.00;;;;;;4979625;28;20920;-89
2023/09/09 06:21:57;;;;;;;12.07;10.88;;;19.80;1.00;;;;;;4985715;28;20392;-88
2023/09/09 06:24:23;;;;;;;11.13;10.23;;;19.90;1.00;;;;;;4989396;28;20422;-89
2023/09/09 06:26:48;;;;;;;10.82;9.95;;;19.00;1.00;;;;;;4990594;28;20421;-89
2023/09/09 06:29:14;;;;;;;10.98;10.07;;;18.70;1.00;;;;;;4991625;28;20399;-89
2023/09/09 06:31:41;;;;;;;11.10;10.00;;;20.40;1.00;;;;;;4990539;28;20469;-89
2023/09/09 06:34:09;;;;;;;10.93;9.80;;;18.90;1.00;;;;;;4983880;28;20388;-90
2023/09/09 06:36:34;;;;;;;11.25;10.07;;;21.00;1.00;;;;;;4984939;28;20427;-88
2023/09/09 06:39:00;;;;;;;11.48;10.43;;;20.40;1.00;;;;;;4985717;28;20399;-89
2023/09/09 06:41:25;;;;;;;10.87;9.87;;;18.80;1.00;;;;;;4984171;28;20411;-88
2023/09/09 06:43:51;;;;;;;12.25;10.38;;;18.10;1.00;;;;;;4990396;28;20405;-88
2023/09/09 06:46:16;;;;;;;11.23;10.03;;;20.10;1.00;;;;;;4989749;28;20401;-88
2023/09/09 06:48:42;;;;;;;10.50;9.68;;;18.00;1.00;;;;;;4993201;28;20393;-88
2023/09/09 06:51:08;;;;;;;11.40;10.50;;;20.90;1.00;;;;;;4986927;28;20459;-89
2023/09/09 06:53:33;;;;;;;11.13;10.13;;;19.60;1.00;;;;;;4976837;28;20456;-89
2023/09/09 06:55:59;;;;;;;10.77;9.40;;;20.00;1.00;;;;;;4984233;28;20404;-89
2023/09/09 06:58:24;;;;;;;10.63;9.73;;;20.70;1.00;;;;;;5006114;28;20384;-88
2023/09/09 07:00:51;;;;;;;11.20;10.00;;;19.80;1.00;;;;;;4993667;28;20395;-88
2023/09/09 07:03:18;;;;;;;10.77;9.88;;;21.00;1.00;;;;;;4998871;28;20484;-88
2023/09/09 07:05:44;;;;;;;10.30;9.40;;;19.20;1.00;;;;;;5016434;28;20389;-89
2023/09/09 07:08:09;;;;;;;10.70;9.80;;;21.20;1.00;;;;;;4994426;28;20483;-89
2023/09/09 07:10:35;;;;;;;10.10;9.30;;;18.20;1.00;;;;;;4995420;28;20452;-89
2023/09/09 07:13:00;;;;;;;10.37;9.57;;;21.10;1.00;;;;;;5013404;28;20784;-89
2023/09/09 07:15:26;;;;;;;10.40;9.40;;;22.20;1.00;;;;;;4989402;28;20414;-89
2023/09/09 07:17:52;;;;;;;10.45;9.55;;;20.70;1.00;;;;;;4993594;28;20391;-89
2023/09/09 07:20:17;;;;;;;10.50;9.47;;;20.10;1.00;;;;;;5005839;28;20385;-90
2023/09/09 07:22:43;;;;;;;10.90;9.90;;;20.50;1.00;;;;;;4992645;28;20394;-88
2023/09/09 07:25:08;;;;;;;11.90;9.60;;;23.40;1.00;;;;;;4994098;28;20385;-88
2023/09/09 07:27:34;;;;;;;9.68;8.80;;;21.80;1.00;;;;;;4990017;28;20445;-89
2023/09/09 07:30:00;;;;;;;10.02;9.23;;;22.60;1.00;;;;;;4989840;28;20404;-90
2023/09/09 07:32:25;;;;;;;10.57;9.60;;;21.30;1.00;;;;;;4983989;28;20401;-90
2023/09/09 07:34:51;;;;;;;9.40;8.60;;;20.40;1.00;;;;;;4994360;28;20405;-90
2023/09/09 07:37:17;;;;;;;10.07;9.20;;;20.80;1.00;;;;;;5005752;28;20416;-90
2023/09/09 07:39:45;;;;;;;9.82;9.02;;;20.90;1.00;;;;;;5003543;28;20394;-90
2023/09/09 07:42:12;;;;;;;9.55;8.73;;;22.20;1.00;;;;;;5006061;28;20396;-90
2023/09/09 07:44:37;;;;;;;9.90;9.00;;;20.80;1.00;;;;;;4999818;28;20391;-90
2023/09/09 07:47:06;;;;;;;9.10;8.40;;;21.20;1.00;;;;;;4988396;28;20413;-92
2023/09/09 07:49:33;;;;;;;10.10;9.20;;;21.20;1.00;;;;;;4989511;28;20402;-90
2023/09/09 07:51:59;;;;;;;9.70;8.80;;;22.10;1.00;;;;;;4992296;28;20385;-91
2023/09/09 07:54:24;;;;;;;10.00;9.20;;;22.30;1.00;;;;;;4998633;28;20404;-90
2023/09/09 07:56:50;;;;;;;9.90;8.90;;;21.50;1.00;;;;;;4990643;28;20387;-91
2023/09/09 07:59:15;;;;;;;9.60;8.77;;;21.60;1.00;;;;;;5011181;28;20952;-90
2023/09/09 08:01:42;;;;;;;9.00;8.30;;;21.70;1.00;;;;;;4990064;28;20397;-90
2023/09/09 08:04:09;;;;;;;9.27;8.45;;;22.50;1.00;;;;;;4984772;28;20459;-90
2023/09/09 08:06:35;;;;;;;8.93;8.23;;;22.60;1.00;;;;;;4998616;28;20394;-89
2023/09/09 08:09:01;;;;;;;9.00;8.10;;;22.60;1.00;;;;;;5006863;28;20505;-90
2023/09/09 08:11:27;;;;;;;8.95;8.25;;;22.00;1.00;;;;;;5006667;28;20397;-91
2023/09/09 08:13:52;;;;;;;8.87;7.97;;;22.10;1.00;;;;;;5005226;28;20409;-90
2023/09/09 08:16:18;;;;;;;9.60;8.70;;;23.70;1.00;;;;;;5007273;28;20404;-91
2023/09/09 08:18:43;;;;;;;8.40;7.80;;;23.10;1.00;;;;;;5006740;28;20392;-91
2023/09/09 08:21:10;;;;;;;9.20;8.40;;;23.40;1.00;;;;;;5002290;28;20478;-90
2023/09/09 08:23:36;;;;;;;8.32;7.63;;;22.90;1.00;;;;;;5000790;28;20405;-90
2023/09/09 08:26:01;;;;;;;7.60;7.03;;;22.70;1.00;;;;;;4996292;28;20540;-90
2023/09/09 08:28:27;;;;;;;8.20;7.40;;;22.90;1.00;;;;;;4984774;28;20391;-91
2023/09/09 08:30:58;;;;;;;8.35;7.65;;;23.60;1.00;;;;;;4998523;22;20382;-91
2023/09/09 08:33:23;;;;;;;8.18;7.47;;;23.00;1.00;;;;;;4999151;28;20400;-91
2023/09/09 08:35:49;;;;;;;7.93;7.22;;;23.10;1.00;;;;;;4996740;28;20455;-91
2023/09/09 08:38:15;;;;;;;8.80;7.60;;;23.70;1.00;;;;;;4996593;28;20408;-92
2023/09/09 08:40:55;;;;;;;8.48;6.85;;;24.60;1.00;;;;;;5003798;28;20435;-91
2023/09/09 08:43:45;;;;;;;8.20;7.40;;;23.30;1.00;;;;;;4980783;28;20387;-92
2023/09/09 08:46:22;;;;;;;7.97;7.18;;;23.40;1.00;;;;;;4967635;28;20398;-91
2023/09/09 08:48:52;;;;;;;7.78;7.07;;;23.60;1.00;;;;;;4977226;28;20405;-92
2023/09/09 08:51:24;;;;;;;7.80;7.10;;;23.80;1.00;;;;;;4976222;28;21271;-93
2023/09/09 08:53:52;;;;;;;7.47;6.88;;;24.80;1.00;;;;;;4976481;28;20798;-92
2023/09/09 08:56:19;;;;;;;7.90;7.20;;;24.00;1.00;;;;;;4977167;28;20481;-91
2023/09/09 08:58:45;;;;;;;10.05;7.22;;;23.90;1.00;;;;;;4976980;28;20482;-91
2023/09/09 09:01:14;;;;;;;7.70;7.00;;;24.00;1.00;;;;;;4973172;28;20420;-91
2023/09/09 09:03:40;;;;;;;8.53;6.90;;;24.30;1.00;;;;;;4994369;28;20394;-92
2023/09/09 09:06:06;;;;;;;6.77;6.27;;;25.60;1.00;;;;;;4994247;28;20398;-92
2023/09/09 09:08:33;;;;;;;7.30;6.60;;;24.60;1.00;;;;;;4989355;28;20957;-83
2023/09/09 09:11:01;;;;;;;7.70;7.10;;;25.40;1.00;;;;;;4976955;28;20409;-81
2023/09/09 09:13:31;;;;;;;9.48;7.07;;;24.80;1.00;;;;;;4998007;28;20414;-81
2023/09/09 09:15:56;;;;;;;7.00;6.40;;;25.00;1.00;;;;;;4989836;28;20439;-82
2023/09/09 09:18:22;;;;;;;7.00;6.30;;;25.20;1.00;;;;;;4987168;28;20417;-81
2023/09/09 09:20:49;;;;;;;6.43;5.83;;;26.10;1.00;;;;;;4988333;28;20383;-82
2023/09/09 09:23:14;;;;;;;7.05;6.45;;;25.40;1.00;;;;;;4978499;28;20405;-82
2023/09/09 09:25:44;;;;;;;7.30;6.50;;;25.30;1.00;;;;;;4993327;28;20800;-82
2023/09/09 09:28:17;;;;;;;6.80;6.20;;;25.40;1.00;;;;;;4992582;28;20421;-82
2023/09/09 09:30:43;;;;;;;7.78;7.00;;;25.60;1.00;;;;;;4992384;28;20418;-82
2023/09/09 09:33:08;;;;;;;7.17;6.53;;;25.50;1.00;;;;;;4993537;28;20390;-82
2023/09/09 09:35:36;;;;;;;7.63;6.82;;;25.50;1.00;;;;;;4973904;28;20865;-82
2023/09/09 09:38:09;;;;;;;7.40;6.80;;;25.50;1.00;;;;;;4987440;28;20477;-82
2023/09/09 09:40:35;;;;;;;8.65;6.80;;;25.60;1.00;;;;;;5000036;28;20441;-82
2023/09/09 09:43:01;;;;;;;9.70;6.70;;;26.00;1.00;;;;;;4995797;28;20728;-82
2023/09/09 09:45:29;;;;;;;7.23;6.53;;;25.90;1.00;;;;;;4990699;28;20414;-82
2023/09/09 09:47:57;;;;;;;7.82;7.03;;;25.90;1.00;;;;;;4971288;28;20399;-82
2023/09/09 09:50:30;;;;;;;7.80;7.00;;;26.20;1.00;;;;;;4990137;28;20885;-81
2023/09/09 09:53:00;;;;;;;7.38;6.78;;;26.00;1.00;;;;;;4971294;28;20441;-81
2023/09/09 09:55:27;;;;;;;7.80;7.00;;;26.20;1.00;;;;;;4989556;28;20414;-81
2023/09/09 09:57:55;;;;;;;7.90;7.10;;;26.40;1.00;;;;;;4987802;28;20387;-82
2023/09/09 10:00:21;;;;;;;8.75;6.90;;;26.40;1.00;;;;;;4986840;28;20387;-82
2023/09/09 10:02:52;;;;;;;8.00;7.20;;;26.70;1.00;;;;;;4987932;28;20398;-82
2023/09/09 10:05:23;;;;;;;7.35;6.38;;;26.50;1.00;;;;;;4983382;28;20441;-82
2023/09/09 10:08:25;;;;;;;8.23;7.43;;;26.60;1.00;;;;;;4988333;28;20406;-82
2023/09/09 10:11:04;;;;;;;8.02;6.70;;;26.50;1.00;;;;;;4988338;28;20493;-82
2023/09/09 10:13:43;;;;;;;8.00;7.20;;;26.60;1.00;;;;;;4995141;28;20865;-82
2023/09/09 10:16:09;;;;;;;7.60;6.90;;;26.70;1.00;;;;;;4970352;28;20416;-81
2023/09/09 10:18:37;;;;;;;7.78;6.90;;;26.90;1.00;;;;;;4990261;28;20473;-82
2023/09/09 10:21:06;;;;;;;7.75;7.15;;;27.00;1.00;;;;;;4993724;28;20383;-81
2023/09/09 10:23:32;;;;;;;7.10;6.50;;;26.90;1.00;;;;;;4976481;28;20507;-81
2023/09/09 10:25:59;;;;;;;7.03;6.20;;;27.00;1.00;;;;;;4989299;28;20390;-82
2023/09/09 10:28:26;;;;;;;6.95;5.93;;;27.10;1.00;;;;;;4972309;28;20410;-81
2023/09/09 10:30:53;;;;;;;7.35;6.50;;;27.20;1.00;;;;;;4972810;28;20402;-82
2023/09/09 10:33:21;;;;;;;7.47;6.78;;;27.10;1.00;;;;;;4970910;28;21089;-88
2023/09/09 10:35:50;;;;;;;7.13;6.23;;;27.30;1.00;;;;;;4970321;28;20415;-88
2023/09/09 10:38:17;;;;;;;7.28;6.55;;;27.40;1.00;;;;;;4981772;28;20743;-87
2023/09/09 10:40:44;;;;;;;6.55;6.05;;;27.30;1.00;;;;;;4977502;28;20905;-88
2023/09/09 10:43:09;;;;;;;7.20;6.50;;;27.40;1.00;;;;;;4994519;28;20399;-89
2023/09/09 10:45:45;;;;;;;7.43;6.00;;;27.40;1.00;;;;;;4993433;28;20417;-87
2023/09/09 10:48:11;;;;;;;6.90;6.30;;;27.50;1.00;;;;;;5019061;28;20410;-87
2023/09/09 10:50:49;;;;;;;6.65;6.05;;;27.60;1.00;;;;;;5002872;28;20425;-79
2023/09/09 10:53:22;;;;;;;6.18;5.68;;;27.90;1.00;;;;;;5003561;28;20833;-85
2023/09/09 10:55:50;;;;;;;6.60;5.93;;;28.00;1.00;;;;;;4994871;28;20426;-82
2023/09/09 10:58:18;;;;;;;6.20;5.60;;;28.10;1.00;;;;;;4995268;28;20391;-83
2023/09/09 11:00:50;;;;;;;5.13;4.72;;;27.90;1.00;;;;;;4976715;28;20421;-82
2023/09/09 11:05:13;;;;;;;5.97;5.45;;;28.10;1.00;;;;;;5085815;27;20373;-83
2023/09/09 11:07:45;;;;;;;7.23;5.60;;;28.30;1.00;;;;;;5069903;28;20381;-83
2023/09/09 11:10:16;;;;;;;7.03;5.82;;;28.40;1.00;;;;;;5070656;28;20857;-82
2023/09/09 11:12:57;;;;;;;6.10;5.07;;;28.50;1.00;;;;;;5070688;28;20888;-82
2023/09/09 11:15:25;;;;;;;6.63;5.90;;;28.90;1.00;;;;;;5068867;28;20411;-84
2023/09/09 11:17:51;;;;;;;5.68;5.00;;;28.80;1.00;;;;;;5067589;28;20392;-84
2023/09/09 11:20:20;;;;;;;6.70;6.10;;;;;;;;;;5074168;28;20377;-86
2023/09/09 11:22:46;;;;;;;5.65;5.15;;;28.90;1.00;;;;;;5086595;28;20797;-83
2023/09/09 11:25:14;;;;;;;6.05;5.22;;;29.10;1.00;;;;;;5091280;28;20447;-83
2023/09/09 11:27:40;;;;;;;6.60;5.40;;;29.50;1.00;;;;;;5078793;28;20402;-82
2023/09/09 11:30:06;;;;;;;6.43;5.82;;;29.50;1.00;;;;;;5083676;28;20813;-83
2023/09/09 11:32:32;;;;;;;5.80;5.30;;;30.30;1.00;;;;;;5083530;28;20377;-82
2023/09/09 11:34:58;;;;;;;6.90;5.50;;;31.00;1.00;;;;;;5074167;28;20431;-84
2023/09/09 11:37:24;;;;;;;7.67;5.20;;;31.70;1.00;;;;;;5065814;28;20428;-84
2023/09/09 11:39:57;;;;;;;8.90;5.10;;;31.70;1.00;;;;;;5065623;28;20530;-83
2023/09/09 11:42:22;;;;;;;5.90;5.40;;;31.80;1.00;;;;;;5062333;28;20532;-84
2023/09/09 11:44:48;;;;;;;8.27;4.97;;;31.30;1.00;;;;;;5065430;28;20967;-84
2023/09/09 11:47:16;;;;;;;5.67;5.07;;;31.80;1.00;;;;;;5064399;28;20385;-84
2023/09/09 11:49:48;;;;;;;5.80;5.30;;;32.10;1.00;;;;;;5064285;28;20447;-84
2023/09/09 11:52:14;;;;;;;5.47;4.97;;;31.30;1.00;;;;;;5064782;28;20483;-85
2023/09/09 11:54:44;;;;;;;6.27;5.03;;;32.30;1.00;;;;;;5061679;28;20476;-83
2023/09/09 11:57:10;;;;;;;6.00;5.40;;;31.70;1.00;;;;;;5065680;28;20392;-83
2023/09/09 11:59:51;;;;;;;7.35;5.35;;;31.80;1.00;;;;;;5065906;28;20385;-83
2023/09/09 12:02:18;;;;;;;5.90;5.28;;;31.40;1.00;;;;;;5066770;28;20466;-84
2023/09/09 12:05:01;;;;;;;7.55;5.60;;;31.60;1.00;;;;;;5077550;28;21221;-84
2023/09/09 12:07:29;;;;;;;5.55;5.15;;;31.90;1.00;;;;;;5085845;28;20462;-83
2023/09/09 12:09:56;;;;;;;6.83;5.80;;;31.40;1.00;;;;;;5080940;28;20439;-84
2023/09/09 12:12:22;;;;;;;5.50;5.00;;;31.90;1.00;;;;;;5096523;28;20403;-84
2023/09/09 12:14:49;;;;;;;5.40;4.90;;;31.90;1.00;;;;;;5082204;28;20384;-84
2023/09/09 12:17:15;;;;;;;6.75;5.32;;;31.80;1.00;;;;;;5070784;28;20449;-83
2023/09/09 12:19:40;;;;;;;6.23;5.63;;;31.80;1.00;;;;;;5072805;28;20396;-84
2023/09/09 12:22:06;;;;;;;7.37;6.00;;;32.00;1.00;;;;;;5071388;28;20449;-85
2023/09/09 12:24:41;;;;;;;6.30;5.40;;;31.00;1.00;;;;;;5071203;28;20522;-85
2023/09/09 12:27:07;;;;;;;6.05;5.55;;;31.70;1.00;;;;;;5071709;28;20384;-85
2023/09/09 12:29:33;;;;;;;6.45;5.55;;;31.50;1.00;;;;;;5074981;28;20443;-84
2023/09/09 12:31:59;;;;;;;6.88;5.85;;;31.50;1.00;;;;;;5070450;28;20580;-84
2023/09/09 12:34:25;;;;;;;6.07;5.47;;;31.70;1.00;;;;;;5069824;28;20432;-84
2023/09/09 12:36:59;;;;;;;6.20;5.70;;;31.80;1.00;;;;;;5075005;28;20790;-84
2023/09/09 12:39:26;;;;;;;6.50;5.50;;;31.50;1.00;;;;;;5072013;28;20399;-85
2023/09/09 12:42:05;;;;;;;6.90;6.20;;;30.90;1.00;;;;;;5072128;28;20403;-84
2023/09/09 12:44:52;;;;;;;6.05;5.50;;;31.40;1.00;;;;;;5070316;28;20454;-85
2023/09/09 12:47:21;;;;;;;6.30;5.80;;;30.90;1.00;;;;;;5075373;28;20490;-84
2023/09/09 12:49:47;;;;;;;6.43;5.78;;;30.80;1.00;;;;;;5078350;28;20396;-85
2023/09/09 12:52:15;;;;;;;7.73;5.60;;;31.30;1.00;;;;;;5087462;28;20403;-84
2023/09/09 12:54:41;;;;;;;6.07;5.57;;;30.90;1.00;;;;;;5091538;28;20391;-84